createdAt,value
2022-09-16T00:01:31.644Z,3.58
2022-09-16T00:03:58.188Z,2.88
2022-09-16T00:06:27.483Z,2.33
2022-09-16T00:08:59.428Z,2.55
2022-09-16T00:11:25.984Z,2.63
2022-09-16T00:13:52.572Z,2.83
2022-09-16T00:16:25.086Z,3.78
2022-09-16T00:18:56.384Z,3.85
2022-09-16T00:21:23.383Z,5.25
2022-09-16T00:23:50.006Z,3.47
2022-09-16T00:26:16.868Z,5.95
2022-09-16T00:28:43.993Z,4.95
2022-09-16T00:31:10.701Z,4.65
2022-09-16T00:33:37.397Z,2.10
2022-09-16T00:36:14.015Z,2.30
2022-09-16T00:38:41.885Z,3.03
2022-09-16T00:41:10.798Z,3.80
2022-09-16T00:44:26.937Z,4.28
2022-09-16T00:46:54.998Z,2.70
2022-09-16T00:49:27.653Z,3.50
2022-09-16T00:51:59.506Z,3.05
2022-09-16T00:54:26.987Z,2.60
2022-09-16T00:56:56.050Z,2.50
2022-09-16T00:59:59.397Z,2.67
2022-09-16T01:02:27.479Z,2.22
2022-09-16T01:04:53.950Z,2.72
2022-09-16T01:07:39.253Z,4.80
2022-09-16T01:10:06.503Z,2.42
2022-09-16T01:12:34.894Z,2.70
2022-09-16T01:15:02.805Z,2.88
2022-09-16T01:17:47.120Z,3.53
2022-09-16T01:20:42.686Z,4.38
2022-09-16T01:23:17.825Z,6.88
2022-09-16T01:26:19.000Z,3.90
2022-09-16T01:28:57.424Z,2.70
2022-09-16T01:31:50.019Z,2.60
2022-09-16T01:34:45.645Z,3.85
2022-09-16T01:37:34.715Z,2.10
2022-09-16T01:40:06.111Z,3.03
2022-09-16T01:42:51.642Z,2.08
2022-09-16T01:45:26.920Z,4.90
2022-09-16T01:48:12.621Z,4.00
2022-09-16T01:50:48.284Z,4.68
2022-09-16T01:53:37.188Z,4.28
2022-09-16T01:56:16.570Z,3.95
2022-09-16T01:58:59.230Z,2.78
2022-09-16T02:01:33.857Z,2.33
2022-09-16T02:04:06.376Z,2.83
2022-09-16T02:06:34.760Z,4.25
2022-09-16T02:09:15.476Z,5.03
2022-09-16T02:11:46.816Z,4.85
2022-09-16T02:14:22.076Z,3.03
2022-09-16T02:16:58.232Z,2.30
2022-09-16T02:19:57.850Z,3.88
2022-09-16T02:22:39.434Z,1.80
2022-09-16T02:25:08.905Z,2.20
2022-09-16T02:27:38.389Z,2.78
2022-09-16T02:30:08.534Z,1.95
2022-09-16T02:32:39.808Z,3.03
2022-09-16T02:35:09.789Z,1.90
2022-09-16T02:37:59.597Z,3.95
2022-09-16T02:40:35.397Z,3.03
2022-09-16T02:43:02.991Z,3.08
2022-09-16T02:45:46.556Z,3.25
2022-09-16T02:48:21.932Z,2.20
2022-09-16T02:50:52.391Z,4.07
2022-09-16T02:53:52.472Z,2.42
2022-09-16T02:56:29.379Z,3.35
2022-09-16T02:58:55.922Z,3.22
2022-09-16T03:01:24.086Z,3.28
2022-09-16T03:03:54.267Z,3.58
2022-09-16T03:06:23.616Z,2.95
2022-09-16T03:08:51.483Z,2.60
2022-09-16T03:11:36.140Z,3.88
2022-09-16T03:14:11.550Z,2.72
2022-09-16T03:16:48.098Z,2.22
2022-09-16T03:19:32.934Z,5.53
2022-09-16T03:22:20.944Z,3.40
2022-09-16T03:24:52.809Z,3.13
2022-09-16T03:27:29.737Z,3.05
2022-09-16T03:30:04.222Z,3.00
2022-09-16T03:32:54.780Z,4.95
2022-09-16T03:35:34.032Z,4.60
2022-09-16T03:38:02.321Z,3.25
2022-09-16T03:40:32.545Z,4.53
2022-09-16T03:42:59.172Z,4.78
2022-09-16T03:45:25.899Z,2.28
2022-09-16T03:47:53.631Z,4.18
2022-09-16T03:50:21.271Z,7.28
2022-09-16T03:52:47.887Z,3.83
2022-09-16T03:55:14.436Z,4.88
2022-09-16T03:57:40.957Z,4.63
2022-09-16T04:00:08.225Z,3.10
2022-09-16T04:02:40.788Z,3.88
2022-09-16T04:05:08.075Z,4.15
2022-09-16T04:07:34.779Z,8.57
2022-09-16T04:10:01.668Z,2.80
2022-09-16T04:12:28.752Z,4.47
2022-09-16T04:14:55.286Z,3.42
2022-09-16T04:17:21.906Z,3.70
2022-09-16T04:19:48.371Z,4.80
2022-09-16T04:22:17.641Z,5.07
2022-09-16T04:24:44.219Z,4.15
2022-09-16T04:27:10.820Z,4.07
2022-09-16T04:29:37.264Z,3.50
2022-09-16T04:32:03.958Z,5.82
2022-09-16T04:34:30.459Z,5.97
2022-09-16T04:36:56.922Z,5.45
2022-09-16T04:39:23.432Z,6.25
2022-09-16T04:41:49.916Z,6.28
2022-09-16T04:44:16.451Z,4.07
2022-09-16T04:46:43.026Z,6.03
2022-09-16T04:49:09.535Z,12.30
2022-09-16T04:51:36.132Z,7.70
2022-09-16T04:54:02.703Z,5.35
2022-09-16T04:56:31.919Z,4.43
2022-09-16T04:59:00.846Z,7.85
2022-09-16T05:01:30.022Z,4.40
2022-09-16T05:04:00.221Z,4.18
2022-09-16T05:06:32.066Z,5.97
2022-09-16T05:08:59.253Z,7.22
2022-09-16T05:11:28.094Z,6.63
2022-09-16T05:13:55.622Z,4.95
2022-09-16T05:16:23.406Z,5.57
2022-09-16T05:18:53.744Z,7.88
2022-09-16T05:21:21.952Z,4.47
2022-09-16T05:23:49.164Z,6.40
2022-09-16T05:26:19.311Z,4.67
2022-09-16T05:28:46.574Z,6.18
2022-09-16T05:31:18.589Z,5.53
2022-09-16T05:33:47.974Z,7.18
2022-09-16T05:36:17.175Z,4.30
2022-09-16T05:38:59.091Z,5.45
2022-09-16T05:41:30.968Z,5.20
2022-09-16T05:44:01.126Z,5.38
2022-09-16T05:46:28.864Z,6.18
2022-09-16T05:48:56.309Z,9.93
2022-09-16T05:51:24.172Z,6.70
2022-09-16T05:53:51.686Z,4.32
2022-09-16T05:56:23.728Z,4.43
2022-09-16T05:58:52.311Z,4.57
2022-09-16T06:01:21.272Z,3.63
2022-09-16T06:03:50.072Z,5.25
2022-09-16T06:06:24.188Z,6.53
2022-09-16T06:08:52.318Z,5.00
2022-09-16T06:11:19.731Z,5.60
2022-09-16T06:13:46.426Z,4.17
2022-09-16T06:16:13.526Z,9.65
2022-09-16T06:18:40.484Z,4.55
2022-09-16T06:21:09.680Z,8.85
2022-09-16T06:23:37.373Z,4.43
2022-09-16T06:26:06.889Z,4.18
2022-09-16T06:28:33.433Z,5.68
2022-09-16T06:31:13.151Z,6.07
2022-09-16T06:33:40.637Z,5.45
2022-09-16T06:36:15.594Z,9.77
2022-09-16T06:38:42.349Z,6.18
2022-09-16T06:41:10.886Z,4.90
2022-09-16T06:43:38.061Z,5.78
2022-09-16T06:46:09.539Z,5.18
2022-09-16T06:48:36.369Z,4.78
2022-09-16T06:51:05.408Z,6.13
2022-09-16T06:53:33.035Z,4.60
2022-09-16T06:56:08.058Z,6.07
2022-09-16T06:58:36.102Z,7.43
2022-09-16T07:03:41.991Z,4.65
2022-09-16T07:06:09.670Z,7.63
2022-09-16T07:08:37.217Z,7.65
2022-09-16T07:11:06.091Z,4.28
2022-09-16T07:13:32.997Z,5.07
2022-09-16T07:16:19.054Z,8.77
2022-09-16T07:18:45.989Z,5.32
2022-09-16T07:21:16.001Z,7.03
2022-09-16T07:23:44.146Z,6.25
2022-09-16T07:28:44.504Z,5.57
2022-09-16T07:31:13.457Z,5.88
2022-09-16T07:33:45.434Z,4.20
2022-09-16T07:36:15.222Z,4.80
2022-09-16T07:38:41.968Z,5.35
2022-09-16T07:41:14.081Z,8.52
2022-09-16T07:43:42.223Z,11.52
2022-09-16T07:48:36.538Z,8.60
2022-09-16T07:51:16.164Z,7.32
2022-09-16T07:53:43.603Z,6.95
2022-09-16T07:56:18.562Z,5.15
2022-09-16T07:58:46.332Z,9.63
2022-09-16T08:01:14.603Z,7.82
2022-09-16T08:03:42.653Z,7.45
2022-09-16T08:06:12.231Z,6.32
2022-09-16T08:08:39.131Z,7.47
2022-09-16T08:11:06.332Z,5.10
2022-09-16T08:13:33.945Z,16.73
2022-09-16T08:16:09.079Z,6.47
2022-09-16T08:18:35.730Z,8.88
2022-09-16T08:21:07.307Z,5.90
2022-09-16T08:23:38.294Z,9.82
2022-09-16T08:26:05.870Z,7.10
2022-09-16T08:28:40.131Z,7.68
2022-09-16T08:31:20.020Z,6.80
2022-09-16T08:33:47.573Z,5.28
2022-09-16T08:36:20.379Z,6.75
2022-09-16T08:38:49.000Z,7.15
2022-09-16T08:41:33.365Z,6.15
2022-09-16T08:44:30.812Z,6.55
2022-09-16T08:47:03.750Z,6.38
2022-09-16T08:49:40.081Z,11.38
2022-09-16T08:52:18.659Z,5.75
2022-09-16T08:54:50.245Z,9.50
2022-09-16T08:57:24.337Z,5.80
2022-09-16T09:00:04.821Z,9.70
2022-09-16T09:02:55.614Z,9.02
2022-09-16T09:05:47.311Z,5.13
2022-09-16T09:08:26.284Z,6.40
2022-09-16T09:10:59.459Z,5.97
2022-09-16T09:13:59.763Z,7.78
2022-09-16T09:17:04.275Z,5.95
2022-09-16T09:19:57.206Z,6.68
2022-09-16T09:22:35.291Z,6.47
2022-09-16T09:25:07.692Z,5.45
2022-09-16T09:27:50.222Z,5.93
2022-09-16T09:30:25.457Z,5.80
2022-09-16T09:33:01.016Z,6.43
2022-09-16T09:35:47.150Z,10.10
2022-09-16T09:38:28.694Z,9.55
2022-09-16T09:41:10.970Z,10.50
2022-09-16T09:43:47.164Z,8.95
2022-09-16T09:46:33.095Z,7.90
2022-09-16T09:49:14.934Z,6.38
2022-09-16T09:51:48.548Z,8.82
2022-09-16T09:54:28.305Z,5.85
2022-09-16T09:57:00.871Z,8.75
2022-09-16T09:59:36.977Z,6.25
2022-09-16T10:02:03.755Z,7.60
2022-09-16T10:04:37.663Z,7.88
2022-09-16T10:07:05.462Z,6.13
2022-09-16T10:09:32.812Z,5.13
2022-09-16T10:11:59.426Z,6.83
2022-09-16T10:14:34.263Z,8.63
2022-09-16T10:17:14.522Z,5.88
2022-09-16T10:19:59.459Z,5.38
2022-09-16T10:22:30.320Z,8.45
2022-09-16T10:25:05.364Z,9.60
2022-09-16T10:27:35.266Z,5.43
2022-09-16T10:30:13.199Z,4.40
2022-09-16T10:35:27.629Z,5.13
2022-09-16T10:38:03.565Z,5.95
2022-09-16T10:40:31.224Z,7.65
2022-09-16T10:43:03.635Z,7.93
2022-09-16T10:45:34.168Z,5.80
2022-09-16T10:48:07.392Z,6.82
2022-09-16T10:50:34.332Z,6.85
2022-09-16T10:53:00.816Z,9.45
2022-09-16T10:55:30.214Z,5.25
2022-09-16T10:58:18.212Z,6.05
2022-09-16T11:00:58.153Z,9.13
2022-09-16T11:03:24.643Z,6.20
2022-09-16T11:06:00.230Z,7.20
2022-09-16T11:08:36.760Z,4.80
2022-09-16T11:11:11.165Z,6.10
2022-09-16T11:14:17.695Z,11.18
2022-09-16T11:17:15.251Z,8.68
2022-09-16T11:19:55.260Z,15.65
2022-09-16T11:22:42.777Z,12.85
2022-09-16T11:25:30.211Z,10.35
2022-09-16T11:28:08.435Z,8.30
2022-09-16T11:30:47.563Z,8.13
2022-09-16T11:33:49.668Z,11.05
2022-09-16T11:36:32.944Z,14.60
2022-09-16T11:39:28.354Z,13.25
2022-09-16T11:42:34.387Z,11.85
2022-09-16T11:45:03.923Z,7.97
2022-09-16T11:48:02.555Z,11.43
2022-09-16T11:50:38.602Z,8.07
2022-09-16T11:53:22.162Z,9.80
2022-09-16T11:56:15.383Z,12.60
2022-09-16T11:58:48.686Z,9.27
2022-09-16T12:01:39.802Z,11.10
2022-09-16T12:04:43.710Z,6.57
2022-09-16T12:07:17.455Z,11.13
2022-09-16T12:09:54.333Z,6.72
2022-09-16T12:12:29.427Z,5.45
2022-09-16T12:15:05.907Z,7.45
2022-09-16T12:17:36.814Z,3.92
2022-09-16T12:20:13.781Z,4.78
2022-09-16T12:22:45.852Z,5.93
2022-09-16T12:25:17.394Z,4.32
2022-09-16T12:27:51.959Z,4.85
2022-09-16T12:30:21.600Z,4.07
2022-09-16T12:33:05.855Z,4.78
2022-09-16T12:35:39.101Z,3.40
2022-09-16T12:38:16.198Z,4.25
2022-09-16T12:41:10.423Z,4.63
2022-09-16T12:44:30.358Z,5.70
2022-09-16T12:47:41.889Z,4.40
2022-09-16T12:50:38.637Z,3.97
2022-09-16T12:53:27.053Z,5.07
2022-09-16T12:56:08.324Z,3.33
2022-09-16T12:58:34.818Z,6.85
2022-09-16T13:01:16.313Z,3.92
2022-09-16T13:03:48.443Z,2.63
2022-09-16T13:06:32.298Z,3.22
2022-09-16T13:09:13.875Z,3.95
2022-09-16T13:14:31.687Z,4.93
2022-09-16T13:17:00.824Z,6.30
2022-09-16T13:19:36.735Z,2.78
2022-09-16T13:22:24.826Z,5.35
2022-09-16T13:24:58.014Z,8.50
2022-09-16T13:27:36.077Z,5.50
2022-09-16T13:32:38.102Z,5.90
2022-09-16T13:35:18.400Z,3.42
2022-09-16T13:37:46.813Z,3.22
2022-09-16T13:40:19.084Z,7.00
2022-09-16T13:42:45.617Z,4.82
2022-09-16T13:45:31.068Z,4.35
2022-09-16T13:47:57.836Z,2.83
2022-09-16T13:50:26.329Z,3.78
2022-09-16T13:52:53.231Z,3.25
2022-09-16T13:55:23.759Z,4.75
2022-09-16T13:58:10.459Z,2.67
2022-09-16T14:00:47.139Z,5.13
2022-09-16T14:03:30.564Z,2.97
2022-09-16T14:06:00.194Z,4.72
2022-09-16T14:08:35.672Z,2.50
2022-09-16T14:11:14.334Z,4.05
2022-09-16T14:13:48.795Z,10.68
2022-09-16T14:16:24.616Z,6.88
2022-09-16T14:19:23.650Z,3.53
2022-09-16T14:22:16.777Z,3.58
2022-09-16T14:24:45.760Z,4.90
2022-09-16T14:27:23.077Z,4.07
2022-09-16T14:30:01.758Z,5.03
2022-09-16T14:32:31.727Z,3.28
2022-09-16T14:35:02.780Z,2.55
2022-09-16T14:37:31.460Z,2.80
2022-09-16T14:40:11.442Z,2.42
2022-09-16T14:42:39.902Z,2.17
2022-09-16T14:45:06.718Z,3.00
2022-09-16T14:47:51.207Z,4.03
2022-09-16T14:50:49.326Z,2.58
2022-09-16T14:53:36.513Z,2.30
2022-09-16T14:56:05.367Z,2.85
2022-09-16T14:58:33.817Z,4.65
2022-09-16T15:01:09.041Z,4.53
2022-09-16T15:04:11.506Z,4.70
2022-09-16T15:06:48.398Z,2.78
2022-09-16T15:09:34.221Z,1.90
2022-09-16T15:12:01.714Z,2.97
2022-09-16T15:14:28.695Z,3.53
2022-09-16T15:17:01.383Z,2.50
2022-09-16T15:19:35.306Z,3.22
2022-09-16T15:22:02.983Z,2.25
2022-09-16T15:24:33.267Z,3.40
2022-09-16T15:27:01.236Z,5.38
2022-09-16T15:29:33.051Z,8.75
2022-09-16T15:32:22.191Z,93.00
2022-09-16T15:34:48.823Z,36.33
2022-09-16T15:37:32.791Z,33.60
2022-09-16T15:40:22.194Z,17.23
2022-09-16T15:43:01.149Z,7.30
2022-09-16T15:45:28.413Z,4.70
2022-09-16T15:48:07.034Z,2.73
2022-09-16T15:50:53.440Z,2.03
2022-09-16T15:53:32.196Z,2.20
2022-09-16T15:56:03.876Z,2.88
2022-09-16T15:58:32.996Z,5.32
2022-09-16T16:01:03.053Z,5.72
2022-09-16T16:03:37.505Z,15.93
2022-09-16T16:06:04.189Z,36.47
2022-09-16T16:08:52.320Z,33.72
2022-09-16T16:11:21.192Z,17.75
2022-09-16T16:13:48.203Z,9.82
2022-09-16T16:16:15.944Z,22.77
2022-09-16T16:18:44.384Z,32.33
2022-09-16T16:21:16.457Z,64.05
2022-09-16T16:23:43.546Z,24.83
2022-09-16T16:26:11.501Z,21.15
2022-09-16T16:28:38.077Z,12.90
2022-09-16T16:31:16.044Z,7.72
2022-09-16T16:36:18.066Z,3.95
2022-09-16T16:38:44.756Z,60.20
2022-09-16T16:41:11.535Z,65.80
2022-09-16T16:43:38.718Z,15.75
2022-09-16T16:46:05.465Z,39.07
2022-09-16T16:48:31.988Z,81.53
2022-09-16T16:51:07.908Z,53.47
2022-09-16T16:53:34.987Z,38.15
2022-09-16T16:56:04.381Z,38.35
2022-09-16T16:58:31.965Z,31.73
2022-09-16T17:01:19.344Z,11.65
2022-09-16T17:03:47.560Z,11.35
2022-09-16T17:08:40.569Z,3.53
2022-09-16T17:11:08.094Z,53.22
2022-09-16T17:13:34.573Z,17.02
2022-09-16T17:16:01.196Z,4.88
2022-09-16T17:18:27.783Z,3.13
2022-09-16T17:20:54.295Z,2.08
2022-09-16T17:23:20.841Z,3.90
2022-09-16T17:25:50.243Z,4.47
2022-09-16T17:28:17.261Z,4.63
2022-09-16T17:30:44.586Z,3.42
2022-09-16T17:33:11.180Z,3.90
2022-09-16T17:35:37.649Z,17.85
2022-09-16T17:38:06.954Z,4.32
2022-09-16T17:40:34.270Z,6.38
2022-09-16T17:43:00.890Z,2.65
2022-09-16T17:45:27.385Z,4.13
2022-09-16T17:47:55.531Z,3.05
2022-09-16T17:52:49.865Z,4.03
2022-09-16T17:55:16.451Z,4.50
2022-09-16T17:57:43.160Z,4.65
2022-09-16T18:00:10.168Z,5.20
2022-09-16T18:02:39.693Z,8.20
2022-09-16T18:05:06.773Z,2.95
2022-09-16T18:07:33.357Z,5.93
2022-09-16T18:09:59.848Z,2.63
2022-09-16T18:12:26.352Z,3.22
2022-09-16T18:14:52.854Z,4.47
2022-09-16T18:17:19.296Z,3.45
2022-09-16T18:19:45.818Z,2.70
2022-09-16T18:22:12.345Z,4.93
2022-09-16T18:24:38.841Z,4.25
2022-09-16T18:27:05.385Z,2.33
2022-09-16T18:29:31.907Z,2.60
2022-09-16T18:31:58.427Z,5.78
2022-09-16T18:34:24.926Z,3.90
2022-09-16T18:36:51.411Z,4.15
2022-09-16T18:39:18.290Z,3.33
2022-09-16T18:41:46.007Z,4.07
2022-09-16T18:44:22.371Z,3.35
2022-09-16T18:46:49.580Z,5.68
2022-09-16T18:49:17.701Z,3.07
2022-09-16T18:51:50.832Z,4.57
2022-09-16T18:54:21.120Z,5.88
2022-09-16T18:56:47.607Z,6.93
2022-09-16T18:59:21.405Z,4.28
2022-09-16T19:01:49.484Z,4.40
2022-09-16T19:04:19.745Z,3.60
2022-09-16T19:06:48.484Z,4.63
2022-09-16T19:09:17.622Z,4.30
2022-09-16T19:11:44.657Z,3.13
2022-09-16T19:14:12.395Z,3.88
2022-09-16T19:16:40.244Z,2.95
2022-09-16T19:19:08.319Z,2.38
2022-09-16T19:24:04.121Z,2.47
2022-09-16T19:26:33.504Z,4.07
2022-09-16T19:29:00.348Z,2.85
2022-09-16T19:31:28.646Z,6.55
2022-09-16T19:33:55.753Z,4.43
2022-09-16T19:36:25.296Z,3.55
2022-09-16T19:38:52.665Z,3.17
2022-09-16T19:41:20.859Z,3.00
2022-09-16T19:46:15.973Z,2.55
2022-09-16T19:48:45.638Z,2.80
2022-09-16T19:51:14.111Z,3.38
2022-09-16T19:53:42.133Z,2.80
2022-09-16T19:58:37.559Z,3.47
2022-09-16T20:01:08.451Z,2.88
2022-09-16T20:03:37.007Z,2.78
2022-09-16T20:06:10.367Z,2.72
2022-09-16T20:08:38.549Z,3.92
2022-09-16T20:13:33.245Z,6.57
2022-09-16T20:16:08.309Z,2.47
2022-09-16T20:18:36.625Z,4.63
2022-09-16T20:21:09.412Z,3.13
2022-09-16T20:23:37.229Z,2.78
2022-09-16T20:26:06.808Z,2.75
2022-09-16T20:28:36.217Z,2.88
2022-09-16T20:31:03.663Z,3.03
2022-09-16T20:33:33.646Z,7.47
2022-09-16T20:36:08.310Z,6.13
2022-09-16T20:38:34.912Z,3.78
2022-09-16T20:41:06.357Z,5.55
2022-09-16T20:43:33.185Z,2.63
2022-09-16T20:46:09.717Z,3.53
2022-09-16T20:48:36.270Z,2.80
2022-09-16T20:51:08.264Z,3.72
2022-09-16T20:53:36.120Z,3.13
2022-09-16T20:56:14.899Z,6.07
2022-09-16T20:58:43.045Z,3.60
2022-09-16T21:01:15.681Z,3.13
2022-09-16T21:03:43.612Z,2.95
2022-09-16T21:06:12.650Z,4.15
2022-09-16T21:08:39.410Z,2.97
2022-09-16T21:11:07.124Z,3.20
2022-09-16T21:13:33.997Z,4.18
2022-09-16T21:16:00.951Z,2.95
2022-09-16T21:18:28.725Z,2.67
2022-09-16T21:21:04.136Z,3.50
2022-09-16T21:23:31.858Z,3.58
2022-09-16T21:26:06.283Z,5.28
2022-09-16T21:28:35.601Z,3.00
2022-09-16T21:31:04.044Z,3.53
2022-09-16T21:33:32.151Z,9.98
2022-09-16T21:38:27.997Z,2.75
2022-09-16T21:40:59.460Z,7.05
2022-09-16T21:43:28.088Z,3.58
2022-09-16T21:45:55.432Z,2.47
2022-09-16T21:48:22.130Z,3.50
2022-09-16T21:50:49.164Z,3.90
2022-09-16T21:53:15.689Z,2.60
2022-09-16T21:55:42.248Z,2.83
2022-09-16T21:58:09.239Z,4.18
2022-09-16T22:00:36.213Z,10.88
2022-09-16T22:03:02.830Z,3.63
2022-09-16T22:05:30.375Z,2.95
2022-09-16T22:07:56.879Z,4.57
2022-09-16T22:10:23.349Z,5.15
2022-09-16T22:12:49.891Z,7.32
2022-09-16T22:15:16.445Z,3.88
2022-09-16T22:17:43.512Z,3.90
2022-09-16T22:20:11.168Z,3.45
2022-09-16T22:22:39.133Z,6.72
2022-09-16T22:25:05.973Z,4.00
2022-09-16T22:27:32.533Z,4.93
2022-09-16T22:29:59.011Z,4.22
2022-09-16T22:32:27.392Z,4.57
2022-09-16T22:34:53.953Z,4.18
2022-09-16T22:37:20.421Z,5.63
2022-09-16T22:39:46.973Z,2.92
2022-09-16T22:42:13.447Z,3.75
2022-09-16T22:44:40.055Z,5.78
2022-09-16T22:47:06.560Z,4.72
2022-09-16T22:49:33.061Z,4.53
2022-09-16T22:51:59.557Z,4.93
2022-09-16T22:54:26.120Z,3.63
2022-09-16T22:56:52.634Z,5.32
2022-09-16T22:59:20.626Z,6.35
2022-09-16T23:01:48.079Z,3.05
2022-09-16T23:04:14.894Z,2.80
2022-09-16T23:06:41.479Z,3.28
2022-09-16T23:09:09.071Z,3.30
2022-09-16T23:11:36.487Z,2.95
2022-09-16T23:14:03.427Z,4.40
2022-09-16T23:16:35.891Z,6.15
2022-09-16T23:19:04.876Z,4.10
2022-09-16T23:21:31.617Z,5.90
2022-09-16T23:24:00.814Z,7.07
2022-09-16T23:26:31.558Z,3.15
2022-09-16T23:28:59.918Z,3.65
2022-09-16T23:31:29.432Z,5.20
2022-09-16T23:33:56.505Z,5.30
2022-09-16T23:36:24.256Z,8.57
2022-09-16T23:38:50.747Z,3.63
2022-09-16T23:41:21.921Z,4.22
2022-09-16T23:43:49.736Z,4.70
2022-09-16T23:46:19.128Z,2.40
2022-09-16T23:48:45.960Z,3.85
2022-09-16T23:51:13.550Z,2.20
2022-09-16T23:53:41.512Z,3.10
2022-09-16T23:56:13.449Z,9.38
2022-09-16T23:58:41.016Z,5.18
